sensor_id;sensor_type;location;lat;lon;timestamp;pressure;altitude;pressure_sealevel;temperature;humidity
64019;BME280;66942;52.138;5.216;2024-01-30T00:00:57;102590.00000000001;;;23.76;31.14
64019;BME280;66942;52.138;5.216;2024-01-30T00:04:09;102590.00000000001;;;23.7;31.23
64019;BME280;66942;52.138;5.216;2024-01-30T00:05:45;102591.00000000001;;;23.81;31.12
64019;BME280;66942;52.138;5.216;2024-01-30T00:07:21;102588.00000000001;;;23.8;31.07
64019;BME280;66942;52.138;5.216;2024-01-30T00:10:34;102589.00000000001;;;23.83;31.1
64019;BME280;66942;52.138;5.216;2024-01-30T00:12:10;102591.00000000001;;;24.1;30.71
64019;BME280;66942;52.138;5.216;2024-01-30T00:13:46;102586.99999999999;;;23.85;30.84
64019;BME280;66942;52.138;5.216;2024-01-30T00:15:22;102589.00000000001;;;23.96;30.82
64019;BME280;66942;52.138;5.216;2024-01-30T00:18:35;102591.00000000001;;;24.14;30.62
64019;BME280;66942;52.138;5.216;2024-01-30T00:20:11;102589.00000000001;;;23.97;30.61
64019;BME280;66942;52.138;5.216;2024-01-30T00:21:47;102583.0;;;23.44;31.42
64019;BME280;66942;52.138;5.216;2024-01-30T00:25:00;102581.0;;;23.82;31.01
64019;BME280;66942;52.138;5.216;2024-01-30T00:26:36;102583.0;;;24.09;30.44
64019;BME280;66942;52.138;5.216;2024-01-30T00:28:12;102580.0;;;24.02;30.6
64019;BME280;66942;52.138;5.216;2024-01-30T00:31:24;102578.0;;;23.75;30.8
64019;BME280;66942;52.138;5.216;2024-01-30T00:33:00;102579.0;;;23.73;30.9
64019;BME280;66942;52.138;5.216;2024-01-30T00:34:36;102580.0;;;23.71;31.04
64019;BME280;66942;52.138;5.216;2024-01-30T00:37:49;102580.0;;;23.66;31.13
64019;BME280;66942;52.138;5.216;2024-01-30T00:39:25;102575.0;;;23.72;31.02
64019;BME280;66942;52.138;5.216;2024-01-30T00:41:04;102572.0;;;23.95;30.6
64019;BME280;66942;52.138;5.216;2024-01-30T00:42:40;102570.0;;;23.76;30.88
64019;BME280;66942;52.138;5.216;2024-01-30T00:45:52;102573.0;;;23.59;31.06
64019;BME280;66942;52.138;5.216;2024-01-30T00:47:28;102575.0;;;23.52;31.19
64019;BME280;66942;52.138;5.216;2024-01-30T00:49:04;102580.0;;;23.75;30.98
64019;BME280;66942;52.138;5.216;2024-01-30T00:52:17;102577.0;;;23.89;30.75
64019;BME280;66942;52.138;5.216;2024-01-30T00:53:53;102574.0;;;23.71;30.92
64019;BME280;66942;52.138;5.216;2024-01-30T00:55:29;102573.0;;;23.77;30.8
64019;BME280;66942;52.138;5.216;2024-01-30T00:58:41;102569.0;;;23.55;31.25
64019;BME280;66942;52.138;5.216;2024-01-30T01:00:18;102568.0;;;23.64;31.14
64019;BME280;66942;52.138;5.216;2024-01-30T01:01:54;102571.0;;;23.77;30.86
64019;BME280;66942;52.138;5.216;2024-01-30T01:03:33;102572.0;;;23.84;30.78
64019;BME280;66942;52.138;5.216;2024-01-30T01:06:45;102572.0;;;23.9;30.72
64019;BME280;66942;52.138;5.216;2024-01-30T01:08:21;102568.0;;;23.86;30.61
64019;BME280;66942;52.138;5.216;2024-01-30T01:09:57;102565.00000000001;;;23.49;31.09
64019;BME280;66942;52.138;5.216;2024-01-30T01:13:09;102556.0;;;23.44;31.38
64019;BME280;66942;52.138;5.216;2024-01-30T01:14:45;102553.0;;;23.91;30.62
64019;BME280;66942;52.138;5.216;2024-01-30T01:16:21;102544.0;;;23.94;30.46
64019;BME280;66942;52.138;5.216;2024-01-30T01:19:34;102533.0;;;23.58;30.67
64019;BME280;66942;52.138;5.216;2024-01-30T01:21:10;102540.00000000001;;;23.49;31.09
64019;BME280;66942;52.138;5.216;2024-01-30T01:22:46;102542.0;;;23.6;30.9
64019;BME280;66942;52.138;5.216;2024-01-30T01:26:01;102547.0;;;23.43;31.25
64019;BME280;66942;52.138;5.216;2024-01-30T01:27:37;102548.0;;;23.52;31.04
64019;BME280;66942;52.138;5.216;2024-01-30T01:29:13;102553.0;;;23.48;31.24
64019;BME280;66942;52.138;5.216;2024-01-30T01:30:50;102554.0;;;23.93;30.52
64019;BME280;66942;52.138;5.216;2024-01-30T01:34:02;102549.0;;;23.82;30.41
64019;BME280;66942;52.138;5.216;2024-01-30T01:35:38;102548.0;;;23.63;30.7
64019;BME280;66942;52.138;5.216;2024-01-30T01:37:14;102552.0;;;23.86;30.37
64019;BME280;66942;52.138;5.216;2024-01-30T01:40:27;102547.0;;;23.74;30.56
64019;BME280;66942;52.138;5.216;2024-01-30T01:42:04;102544.0;;;23.53;30.73
64019;BME280;66942;52.138;5.216;2024-01-30T01:43:39;102550.0;;;23.8;30.41
64019;BME280;66942;52.138;5.216;2024-01-30T01:46:52;102549.0;;;23.49;30.67
64019;BME280;66942;52.138;5.216;2024-01-30T01:48:29;102548.0;;;23.56;30.61
64019;BME280;66942;52.138;5.216;2024-01-30T01:50:05;102549.0;;;23.23;30.87
64019;BME280;66942;52.138;5.216;2024-01-30T01:51:42;102544.0;;;23.6;30.34
64019;BME280;66942;52.138;5.216;2024-01-30T01:54:54;102545.0;;;23.6;30.44
64019;BME280;66942;52.138;5.216;2024-01-30T01:56:31;102541.00000000001;;;23.14;30.7
64019;BME280;66942;52.138;5.216;2024-01-30T01:58:09;102536.99999999999;;;23.12;30.6
64019;BME280;66942;52.138;5.216;2024-01-30T02:01:23;102532.0;;;23.08;30.82
64019;BME280;66942;52.138;5.216;2024-01-30T02:03:02;102536.99999999999;;;22.92;31.07
64019;BME280;66942;52.138;5.216;2024-01-30T02:04:40;102527.0;;;23.09;30.77
64019;BME280;66942;52.138;5.216;2024-01-30T02:06:17;102528.0;;;23.26;30.65
64019;BME280;66942;52.138;5.216;2024-01-30T02:09:31;102540.00000000001;;;22.94;31.04
64019;BME280;66942;52.138;5.216;2024-01-30T02:11:06;102541.00000000001;;;22.92;31.21
64019;BME280;66942;52.138;5.216;2024-01-30T02:12:43;102534.99999999999;;;22.97;30.88
64019;BME280;66942;52.138;5.216;2024-01-30T02:15:55;102533.99999999999;;;22.65;31.37
64019;BME280;66942;52.138;5.216;2024-01-30T02:17:31;102533.99999999999;;;22.78;31.25
64019;BME280;66942;52.138;5.216;2024-01-30T02:19:07;102546.0;;;22.85;31.05
64019;BME280;66942;52.138;5.216;2024-01-30T02:22:20;102546.0;;;22.7;31.24
64019;BME280;66942;52.138;5.216;2024-01-30T02:23:57;102550.0;;;22.51;31.61
64019;BME280;66942;52.138;5.216;2024-01-30T02:25:38;102547.0;;;22.46;31.84
64019;BME280;66942;52.138;5.216;2024-01-30T02:27:15;102549.0;;;22.72;31.44
64019;BME280;66942;52.138;5.216;2024-01-30T02:30:27;102549.0;;;22.83;31.4
64019;BME280;66942;52.138;5.216;2024-01-30T02:32:04;102544.0;;;22.85;31.33
64019;BME280;66942;52.138;5.216;2024-01-30T02:33:40;102551.0;;;22.66;31.56
64019;BME280;66942;52.138;5.216;2024-01-30T02:36:52;102545.0;;;22.71;31.27
64019;BME280;66942;52.138;5.216;2024-01-30T02:38:28;102543.0;;;22.9;31.29
64019;BME280;66942;52.138;5.216;2024-01-30T02:40:06;102531.0;;;22.69;31.42
64019;BME280;66942;52.138;5.216;2024-01-30T02:43:19;102524.0;;;22.88;31.23
64019;BME280;66942;52.138;5.216;2024-01-30T02:44:55;102508.99999999999;;;22.8;31.29
64019;BME280;66942;52.138;5.216;2024-01-30T02:46:31;102519.0;;;22.87;31.29
64019;BME280;66942;52.138;5.216;2024-01-30T02:48:08;102521.0;;;23.04;31.17
64019;BME280;66942;52.138;5.216;2024-01-30T02:51:20;102531.0;;;23.14;31.14
64019;BME280;66942;52.138;5.216;2024-01-30T02:52:55;102520.0;;;23.13;31.04
64019;BME280;66942;52.138;5.216;2024-01-30T02:54:35;102517.0;;;23.13;30.95
64019;BME280;66942;52.138;5.216;2024-01-30T02:57:47;102517.0;;;22.98;31.06
64019;BME280;66942;52.138;5.216;2024-01-30T02:59:23;102511.99999999999;;;23.05;31.06
64019;BME280;66942;52.138;5.216;2024-01-30T03:00:59;102504.0;;;23.27;30.79
64019;BME280;66942;52.138;5.216;2024-01-30T03:04:12;102514.00000000001;;;22.79;31.42
64019;BME280;66942;52.138;5.216;2024-01-30T03:05:49;102511.99999999999;;;22.81;31.43
64019;BME280;66942;52.138;5.216;2024-01-30T03:07:25;102514.00000000001;;;22.85;31.44
64019;BME280;66942;52.138;5.216;2024-01-30T03:09:01;102508.99999999999;;;22.51;31.74
64019;BME280;66942;52.138;5.216;2024-01-30T03:12:13;102513.00000000001;;;22.69;31.51
64019;BME280;66942;52.138;5.216;2024-01-30T03:13:49;102508.99999999999;;;22.39;32.08
64019;BME280;66942;52.138;5.216;2024-01-30T03:15:25;102507.0;;;22.97;31.26
64019;BME280;66942;52.138;5.216;2024-01-30T03:18:38;102505.0;;;23.11;31.0
64019;BME280;66942;52.138;5.216;2024-01-30T03:20:14;102506.0;;;23.13;31.02
64019;BME280;66942;52.138;5.216;2024-01-30T03:21:50;102508.0;;;22.92;31.23
64019;BME280;66942;52.138;5.216;2024-01-30T03:25:02;102504.0;;;22.88;31.23
64019;BME280;66942;52.138;5.216;2024-01-30T03:26:39;102502.0;;;22.87;31.26
64019;BME280;66942;52.138;5.216;2024-01-30T03:28:15;102503.0;;;23.0;31.04
64019;BME280;66942;52.138;5.216;2024-01-30T03:31:27;102501.0;;;22.93;31.19
64019;BME280;66942;52.138;5.216;2024-01-30T03:33:04;102489.00000000001;;;23.08;31.06
64019;BME280;66942;52.138;5.216;2024-01-30T03:34:40;102488.00000000001;;;22.88;31.37
64019;BME280;66942;52.138;5.216;2024-01-30T03:36:16;102481.0;;;23.24;30.98
64019;BME280;66942;52.138;5.216;2024-01-30T03:39:28;102482.0;;;23.04;31.28
64019;BME280;66942;52.138;5.216;2024-01-30T03:41:07;102475.0;;;23.05;31.07
64019;BME280;66942;52.138;5.216;2024-01-30T03:42:43;102475.0;;;23.35;30.83
64019;BME280;66942;52.138;5.216;2024-01-30T03:45:55;102473.0;;;23.19;31.01
64019;BME280;66942;52.138;5.216;2024-01-30T03:47:31;102475.0;;;23.2;31.02
64019;BME280;66942;52.138;5.216;2024-01-30T03:49:09;102470.0;;;23.31;30.82
64019;BME280;66942;52.138;5.216;2024-01-30T03:52:22;102468.0;;;23.35;30.79
64019;BME280;66942;52.138;5.216;2024-01-30T03:53:58;102477.0;;;23.27;31.02
64019;BME280;66942;52.138;5.216;2024-01-30T03:55:34;102479.0;;;23.39;30.86
64019;BME280;66942;52.138;5.216;2024-01-30T03:57:10;102479.0;;;23.37;30.87
64019;BME280;66942;52.138;5.216;2024-01-30T04:00:22;102480.0;;;23.32;30.92
64019;BME280;66942;52.138;5.216;2024-01-30T04:01:59;102480.0;;;23.18;31.2
64019;BME280;66942;52.138;5.216;2024-01-30T04:03:36;102483.0;;;23.4;30.86
64019;BME280;66942;52.138;5.216;2024-01-30T04:06:48;102488.00000000001;;;23.65;30.48
64019;BME280;66942;52.138;5.216;2024-01-30T04:08:24;102484.99999999999;;;23.43;30.8
64019;BME280;66942;52.138;5.216;2024-01-30T04:10:00;102480.0;;;23.39;30.76
64019;BME280;66942;52.138;5.216;2024-01-30T04:13:13;102493.0;;;23.52;30.72
64019;BME280;66942;52.138;5.216;2024-01-30T04:14:48;102492.0;;;23.51;30.77
64019;BME280;66942;52.138;5.216;2024-01-30T04:16:25;102483.0;;;23.38;30.94
64019;BME280;66942;52.138;5.216;2024-01-30T04:19:37;102484.99999999999;;;23.59;30.64
64019;BME280;66942;52.138;5.216;2024-01-30T04:21:13;102483.0;;;23.49;30.75
64019;BME280;66942;52.138;5.216;2024-01-30T04:22:49;102482.0;;;23.57;30.67
64019;BME280;66942;52.138;5.216;2024-01-30T04:24:25;102474.0;;;23.78;30.37
64019;BME280;66942;52.138;5.216;2024-01-30T04:27:38;102475.0;;;23.8;30.4
64019;BME280;66942;52.138;5.216;2024-01-30T04:29:14;102472.0;;;23.73;30.33
64019;BME280;66942;52.138;5.216;2024-01-30T04:30:50;102469.0;;;23.74;30.38
64019;BME280;66942;52.138;5.216;2024-01-30T04:34:02;102465.00000000001;;;23.73;30.48
64019;BME280;66942;52.138;5.216;2024-01-30T04:35:38;102463.00000000001;;;23.8;30.29
64019;BME280;66942;52.138;5.216;2024-01-30T04:37:14;102454.0;;;23.8;30.3
64019;BME280;66942;52.138;5.216;2024-01-30T04:40:26;102452.0;;;23.81;30.35
64019;BME280;66942;52.138;5.216;2024-01-30T04:42:03;102452.0;;;23.92;30.22
64019;BME280;66942;52.138;5.216;2024-01-30T04:43:40;102453.0;;;23.89;30.2
64019;BME280;66942;52.138;5.216;2024-01-30T04:45:16;102452.0;;;23.84;30.31
64019;BME280;66942;52.138;5.216;2024-01-30T04:48:28;102456.0;;;23.84;30.38
64019;BME280;66942;52.138;5.216;2024-01-30T04:50:05;102455.0;;;23.91;30.27
64019;BME280;66942;52.138;5.216;2024-01-30T04:51:41;102457.0;;;23.91;30.26
64019;BME280;66942;52.138;5.216;2024-01-30T04:54:54;102456.0;;;23.96;30.25
64019;BME280;66942;52.138;5.216;2024-01-30T04:56:30;102458.99999999999;;;23.61;30.74
64019;BME280;66942;52.138;5.216;2024-01-30T04:58:09;102456.0;;;23.99;30.25
64019;BME280;66942;52.138;5.216;2024-01-30T05:01:21;102457.0;;;23.94;30.22
64019;BME280;66942;52.138;5.216;2024-01-30T05:02:57;102448.0;;;24.01;30.14
64019;BME280;66942;52.138;5.216;2024-01-30T05:04:33;102453.0;;;23.95;30.25
64019;BME280;66942;52.138;5.216;2024-01-30T05:06:09;102453.0;;;23.81;30.39
64019;BME280;66942;52.138;5.216;2024-01-30T05:09:22;102447.0;;;23.57;30.68
64019;BME280;66942;52.138;5.216;2024-01-30T05:11:00;102449.0;;;23.88;30.37
64019;BME280;66942;52.138;5.216;2024-01-30T05:12:36;102451.0;;;23.84;30.37
64019;BME280;66942;52.138;5.216;2024-01-30T05:15:48;102452.0;;;23.95;30.21
64019;BME280;66942;52.138;5.216;2024-01-30T05:17:24;102448.0;;;23.76;30.5
64019;BME280;66942;52.138;5.216;2024-01-30T05:19:00;102449.0;;;23.92;30.32
64019;BME280;66942;52.138;5.216;2024-01-30T05:22:13;102447.0;;;24.02;30.2
64019;BME280;66942;52.138;5.216;2024-01-30T05:23:49;102443.0;;;23.51;30.99
64019;BME280;66942;52.138;5.216;2024-01-30T05:25:25;102441.00000000001;;;23.16;31.45
64019;BME280;66942;52.138;5.216;2024-01-30T05:28:37;102432.0;;;24.09;30.24
64019;BME280;66942;52.138;5.216;2024-01-30T05:30:14;102430.0;;;24.4;29.78
64019;BME280;66942;52.138;5.216;2024-01-30T05:31:49;102434.99999999999;;;24.2;30.07
64019;BME280;66942;52.138;5.216;2024-01-30T05:33:25;102445.0;;;24.34;29.92
64019;BME280;66942;52.138;5.216;2024-01-30T05:36:38;102447.0;;;24.29;29.95
64019;BME280;66942;52.138;5.216;2024-01-30T05:38:16;102450.0;;;24.12;30.25
64019;BME280;66942;52.138;5.216;2024-01-30T05:39:52;102450.0;;;24.46;29.69
64019;BME280;66942;52.138;5.216;2024-01-30T05:43:04;102445.0;;;24.39;29.76
64019;BME280;66942;52.138;5.216;2024-01-30T05:44:40;102447.0;;;24.56;29.53
64019;BME280;66942;52.138;5.216;2024-01-30T05:46:16;102445.0;;;24.56;29.55
64019;BME280;66942;52.138;5.216;2024-01-30T05:49:32;102445.0;;;24.45;29.69
64019;BME280;66942;52.138;5.216;2024-01-30T05:51:08;102443.0;;;24.35;29.87
64019;BME280;66942;52.138;5.216;2024-01-30T05:52:44;102449.0;;;24.32;30.02
64019;BME280;66942;52.138;5.216;2024-01-30T05:54:20;102449.0;;;24.56;29.6
64019;BME280;66942;52.138;5.216;2024-01-30T05:57:32;102449.0;;;24.51;29.68
64019;BME280;66942;52.138;5.216;2024-01-30T05:59:08;102450.0;;;24.56;29.63
64019;BME280;66942;52.138;5.216;2024-01-30T06:00:44;102451.0;;;24.54;29.7
64019;BME280;66942;52.138;5.216;2024-01-30T06:03:57;102449.0;;;24.27;30.02
64019;BME280;66942;52.138;5.216;2024-01-30T06:05:33;102455.0;;;24.43;29.8
64019;BME280;66942;52.138;5.216;2024-01-30T06:07:09;102455.0;;;24.6;29.57
64019;BME280;66942;52.138;5.216;2024-01-30T06:10:21;102451.0;;;24.32;30.11
64019;BME280;66942;52.138;5.216;2024-01-30T06:12:00;102450.0;;;24.75;29.45
64019;BME280;66942;52.138;5.216;2024-01-30T06:13:36;102455.0;;;24.64;29.62
64019;BME280;66942;52.138;5.216;2024-01-30T06:15:12;102449.0;;;24.49;29.75
64019;BME280;66942;52.138;5.216;2024-01-30T06:18:25;102455.0;;;24.61;29.76
64019;BME280;66942;52.138;5.216;2024-01-30T06:20:01;102451.0;;;24.63;29.68
64019;BME280;66942;52.138;5.216;2024-01-30T06:21:37;102448.0;;;24.52;29.84
64019;BME280;66942;52.138;5.216;2024-01-30T06:24:49;102450.0;;;24.38;29.96
64019;BME280;66942;52.138;5.216;2024-01-30T06:26:25;102455.0;;;24.62;29.74
64019;BME280;66942;52.138;5.216;2024-01-30T06:28:01;102452.0;;;24.36;30.15
64019;BME280;66942;52.138;5.216;2024-01-30T06:31:13;102455.0;;;24.6;29.79
64019;BME280;66942;52.138;5.216;2024-01-30T06:32:49;102451.0;;;24.65;29.75
64019;BME280;66942;52.138;5.216;2024-01-30T06:34:26;102447.0;;;24.72;29.63
64019;BME280;66942;52.138;5.216;2024-01-30T06:37:38;102458.0;;;24.56;29.87
64019;BME280;66942;52.138;5.216;2024-01-30T06:39:14;102461.99999999999;;;24.59;29.91
64019;BME280;66942;52.138;5.216;2024-01-30T06:40:50;102455.0;;;24.65;29.8
64019;BME280;66942;52.138;5.216;2024-01-30T06:42:26;102466.00000000001;;;24.34;30.27
64019;BME280;66942;52.138;5.216;2024-01-30T06:45:38;102474.0;;;24.6;29.95
64019;BME280;66942;52.138;5.216;2024-01-30T06:47:14;102474.0;;;24.3;30.37
64019;BME280;66942;52.138;5.216;2024-01-30T06:48:51;102471.0;;;24.68;29.89
64019;BME280;66942;52.138;5.216;2024-01-30T06:52:04;102465.00000000001;;;24.58;29.92
64019;BME280;66942;52.138;5.216;2024-01-30T06:53:40;102467.0;;;24.51;30.15
64019;BME280;66942;52.138;5.216;2024-01-30T06:55:16;102467.0;;;24.85;29.7
64019;BME280;66942;52.138;5.216;2024-01-30T06:58:29;102476.0;;;24.68;29.9
64019;BME280;66942;52.138;5.216;2024-01-30T07:00:06;102467.0;;;24.71;29.86
64019;BME280;66942;52.138;5.216;2024-01-30T07:01:43;102478.0;;;24.7;29.93
64019;BME280;66942;52.138;5.216;2024-01-30T07:03:19;102477.0;;;24.64;29.99
64019;BME280;66942;52.138;5.216;2024-01-30T07:06:31;102467.0;;;24.86;29.8
64019;BME280;66942;52.138;5.216;2024-01-30T07:08:07;102457.0;;;24.9;29.73
64019;BME280;66942;52.138;5.216;2024-01-30T07:09:43;102474.0;;;24.88;29.78
64019;BME280;66942;52.138;5.216;2024-01-30T07:12:55;102467.0;;;24.81;29.93
64019;BME280;66942;52.138;5.216;2024-01-30T07:14:31;102468.0;;;24.9;29.83
64019;BME280;66942;52.138;5.216;2024-01-30T07:16:07;102464.00000000001;;;24.91;29.77
64019;BME280;66942;52.138;5.216;2024-01-30T07:19:20;102469.0;;;24.92;29.8
64019;BME280;66942;52.138;5.216;2024-01-30T07:20:56;102474.0;;;24.97;29.73
64019;BME280;66942;52.138;5.216;2024-01-30T07:22:32;102474.0;;;24.98;29.76
64019;BME280;66942;52.138;5.216;2024-01-30T07:25:45;102478.0;;;24.85;29.95
64019;BME280;66942;52.138;5.216;2024-01-30T07:27:21;102483.99999999999;;;25.09;29.56
64019;BME280;66942;52.138;5.216;2024-01-30T07:28:57;102482.0;;;24.94;29.84
64019;BME280;66942;52.138;5.216;2024-01-30T07:30:33;102491.00000000001;;;24.92;29.87
64019;BME280;66942;52.138;5.216;2024-01-30T07:33:46;102486.99999999999;;;25.11;29.66
64019;BME280;66942;52.138;5.216;2024-01-30T07:35:22;102484.99999999999;;;25.01;29.73
64019;BME280;66942;52.138;5.216;2024-01-30T07:36:58;102489.00000000001;;;25.11;29.71
64019;BME280;66942;52.138;5.216;2024-01-30T07:40:10;102492.0;;;24.91;30.03
64019;BME280;66942;52.138;5.216;2024-01-30T07:41:46;102494.0;;;25.26;29.61
64019;BME280;66942;52.138;5.216;2024-01-30T07:43:22;102498.0;;;25.36;29.51
64019;BME280;66942;52.138;5.216;2024-01-30T07:46:34;102501.0;;;25.35;29.51
64019;BME280;66942;52.138;5.216;2024-01-30T07:48:10;102506.0;;;25.08;30.04
64019;BME280;66942;52.138;5.216;2024-01-30T07:49:47;102499.0;;;25.31;29.65
64019;BME280;66942;52.138;5.216;2024-01-30T07:53:00;102503.0;;;25.44;29.66
64019;BME280;66942;52.138;5.216;2024-01-30T07:54:49;102501.0;;;25.39;29.77
64019;BME280;66942;52.138;5.216;2024-01-30T07:56:26;102509.99999999999;;;25.33;29.92
64019;BME280;66942;52.138;5.216;2024-01-30T07:58:02;102504.0;;;25.05;30.24
64019;BME280;66942;52.138;5.216;2024-01-30T08:01:15;102509.99999999999;;;25.65;29.76
64019;BME280;66942;52.138;5.216;2024-01-30T08:02:53;102503.0;;;25.15;30.21
64019;BME280;66942;52.138;5.216;2024-01-30T08:04:29;102516.00000000001;;;25.69;29.92
64019;BME280;66942;52.138;5.216;2024-01-30T08:06:05;102508.99999999999;;;25.08;30.95
64019;BME280;66942;52.138;5.216;2024-01-30T08:09:18;102513.00000000001;;;25.84;29.89
64019;BME280;66942;52.138;5.216;2024-01-30T08:10:54;102509.99999999999;;;25.82;29.87
64019;BME280;66942;52.138;5.216;2024-01-30T08:12:30;102507.0;;;25.99;29.63
64019;BME280;66942;52.138;5.216;2024-01-30T08:15:43;102508.0;;;26.24;29.32
64019;BME280;66942;52.138;5.216;2024-01-30T08:17:18;102504.0;;;26.47;29.05
64019;BME280;66942;52.138;5.216;2024-01-30T08:18:54;102503.0;;;25.91;29.7
64019;BME280;66942;52.138;5.216;2024-01-30T08:22:07;102505.0;;;26.25;29.3
64019;BME280;66942;52.138;5.216;2024-01-30T08:23:43;102506.0;;;26.21;29.35
64019;BME280;66942;52.138;5.216;2024-01-30T08:25:19;102515.00000000001;;;26.54;28.93
64019;BME280;66942;52.138;5.216;2024-01-30T08:28:31;102508.0;;;26.47;29.05
64019;BME280;66942;52.138;5.216;2024-01-30T08:30:08;102503.0;;;26.48;29.11
64019;BME280;66942;52.138;5.216;2024-01-30T08:31:44;102506.0;;;26.59;28.93
64019;BME280;66942;52.138;5.216;2024-01-30T08:33:21;102505.0;;;26.58;28.99
64019;BME280;66942;52.138;5.216;2024-01-30T08:36:33;102503.0;;;26.19;29.22
64019;BME280;66942;52.138;5.216;2024-01-30T08:38:09;102508.99999999999;;;26.66;28.99
64019;BME280;66942;52.138;5.216;2024-01-30T08:39:45;102508.99999999999;;;26.77;28.84
64019;BME280;66942;52.138;5.216;2024-01-30T08:42:57;102507.0;;;26.55;29.16
64019;BME280;66942;52.138;5.216;2024-01-30T08:44:33;102514.00000000001;;;26.53;29.25
64019;BME280;66942;52.138;5.216;2024-01-30T08:46:10;102514.00000000001;;;26.74;29.09
64019;BME280;66942;52.138;5.216;2024-01-30T08:49:21;102517.0;;;26.92;28.7
64019;BME280;66942;52.138;5.216;2024-01-30T08:50:58;102515.00000000001;;;26.28;29.56
64019;BME280;66942;52.138;5.216;2024-01-30T08:52:34;102517.0;;;26.96;28.83
64019;BME280;66942;52.138;5.216;2024-01-30T08:55:46;102511.99999999999;;;26.93;28.92
64019;BME280;66942;52.138;5.216;2024-01-30T08:57:22;102517.0;;;26.11;29.62
64019;BME280;66942;52.138;5.216;2024-01-30T08:58:58;102522.0;;;26.81;29.1
64019;BME280;66942;52.138;5.216;2024-01-30T09:00:34;102519.0;;;26.93;28.76
64019;BME280;66942;52.138;5.216;2024-01-30T09:03:46;102524.0;;;26.76;29.19
64019;BME280;66942;52.138;5.216;2024-01-30T09:05:22;102520.0;;;27.32;28.45
64019;BME280;66942;52.138;5.216;2024-01-30T09:06:58;102516.00000000001;;;27.19;28.6
64019;BME280;66942;52.138;5.216;2024-01-30T09:10:10;102515.00000000001;;;27.23;28.49
64019;BME280;66942;52.138;5.216;2024-01-30T09:11:46;102515.00000000001;;;27.13;28.67
64019;BME280;66942;52.138;5.216;2024-01-30T09:13:22;102520.0;;;26.84;29.18
64019;BME280;66942;52.138;5.216;2024-01-30T09:16:34;102519.0;;;26.98;28.7
64019;BME280;66942;52.138;5.216;2024-01-30T09:18:10;102524.0;;;27.13;28.58
64019;BME280;66942;52.138;5.216;2024-01-30T09:19:47;102530.0;;;26.97;28.87
64019;BME280;66942;52.138;5.216;2024-01-30T09:23:04;102530.0;;;26.97;28.82
64019;BME280;66942;52.138;5.216;2024-01-30T09:24:40;102533.99999999999;;;26.56;29.38
64019;BME280;66942;52.138;5.216;2024-01-30T09:26:16;102531.0;;;26.33;29.77
64019;BME280;66942;52.138;5.216;2024-01-30T09:27:52;102534.99999999999;;;26.82;29.05
64019;BME280;66942;52.138;5.216;2024-01-30T09:31:09;102536.99999999999;;;26.89;28.97
64019;BME280;66942;52.138;5.216;2024-01-30T09:32:45;102539.00000000001;;;26.79;29.13
64019;BME280;66942;52.138;5.216;2024-01-30T09:34:22;102534.99999999999;;;26.64;29.42
64019;BME280;66942;52.138;5.216;2024-01-30T09:37:34;102534.99999999999;;;26.99;28.93
64019;BME280;66942;52.138;5.216;2024-01-30T09:39:10;102536.99999999999;;;27.06;28.93
64019;BME280;66942;52.138;5.216;2024-01-30T09:40:50;102540.00000000001;;;26.89;29.15
64019;BME280;66942;52.138;5.216;2024-01-30T09:42:33;102540.00000000001;;;26.15;30.0
64019;BME280;66942;52.138;5.216;2024-01-30T09:45:48;102543.0;;;26.93;29.13
64019;BME280;66942;52.138;5.216;2024-01-30T09:47:26;102545.0;;;27.17;28.74
64019;BME280;66942;52.138;5.216;2024-01-30T09:49:03;102545.0;;;27.03;29.04
64019;BME280;66942;52.138;5.216;2024-01-30T09:52:17;102543.0;;;27.25;28.78
64019;BME280;66942;52.138;5.216;2024-01-30T09:53:54;102549.0;;;26.85;29.31
64019;BME280;66942;52.138;5.216;2024-01-30T09:55:30;102553.0;;;27.16;28.94
64019;BME280;66942;52.138;5.216;2024-01-30T09:57:06;102551.0;;;26.9;29.22
64019;BME280;66942;52.138;5.216;2024-01-30T10:00:18;102558.0;;;26.58;29.71
64019;BME280;66942;52.138;5.216;2024-01-30T10:01:54;102557.0;;;26.93;29.23
64019;BME280;66942;52.138;5.216;2024-01-30T10:03:32;102554.0;;;26.93;29.18
64019;BME280;66942;52.138;5.216;2024-01-30T10:06:44;102549.0;;;27.19;29.01
64019;BME280;66942;52.138;5.216;2024-01-30T10:08:20;102554.0;;;27.3;28.8
64019;BME280;66942;52.138;5.216;2024-01-30T10:09:56;102555.0;;;26.81;29.59
64019;BME280;66942;52.138;5.216;2024-01-30T10:13:08;102557.0;;;27.11;29.16
64019;BME280;66942;52.138;5.216;2024-01-30T10:14:44;102557.0;;;27.56;28.35
64019;BME280;66942;52.138;5.216;2024-01-30T10:16:20;102553.0;;;27.84;28.15
64019;BME280;66942;52.138;5.216;2024-01-30T10:17:57;102555.0;;;27.31;28.7
64019;BME280;66942;52.138;5.216;2024-01-30T10:21:13;102546.0;;;27.51;28.5
64019;BME280;66942;52.138;5.216;2024-01-30T10:22:49;102547.0;;;27.87;28.01
64019;BME280;66942;52.138;5.216;2024-01-30T10:24:25;102549.0;;;27.44;28.86
64019;BME280;66942;52.138;5.216;2024-01-30T10:27:39;102553.0;;;26.94;29.08
64019;BME280;66942;52.138;5.216;2024-01-30T10:29:16;102553.0;;;27.26;28.66
64019;BME280;66942;52.138;5.216;2024-01-30T10:30:58;102566.00000000001;;;27.55;28.44
64019;BME280;66942;52.138;5.216;2024-01-30T10:32:34;102561.99999999999;;;27.88;27.75
64019;BME280;66942;52.138;5.216;2024-01-30T10:35:47;102554.0;;;27.43;28.31
64019;BME280;66942;52.138;5.216;2024-01-30T10:37:25;102555.0;;;27.91;27.71
64019;BME280;66942;52.138;5.216;2024-01-30T10:39:02;102565.00000000001;;;27.55;28.19
64019;BME280;66942;52.138;5.216;2024-01-30T10:42:18;102558.0;;;27.91;27.86
64019;BME280;66942;52.138;5.216;2024-01-30T10:43:58;102559.99999999999;;;27.76;27.92
64019;BME280;66942;52.138;5.216;2024-01-30T10:45:40;102555.0;;;27.43;28.51